createdAt,value
2023-06-19T00:00:24.540Z,6.00
2023-06-19T00:02:52.343Z,6.10
2023-06-19T00:05:20.358Z,5.95
2023-06-19T00:07:47.942Z,5.63
2023-06-19T00:10:15.180Z,6.68
2023-06-19T00:12:44.675Z,6.13
2023-06-19T00:15:12.557Z,6.65
2023-06-19T00:20:27.849Z,7.23
2023-06-19T00:22:55.092Z,6.22
2023-06-19T00:25:22.376Z,7.25
2023-06-19T00:27:49.598Z,5.95
2023-06-19T00:30:17.056Z,6.72
2023-06-19T00:32:47.919Z,5.57
2023-06-19T00:35:17.152Z,6.22
2023-06-19T00:40:33.843Z,6.63
2023-06-19T00:43:01.629Z,6.28
2023-06-19T00:45:29.303Z,6.38
2023-06-19T00:48:00.548Z,6.22
2023-06-19T00:50:32.865Z,6.68
2023-06-19T00:53:04.527Z,6.32
2023-06-19T00:55:33.534Z,6.30
2023-06-19T00:58:04.321Z,6.32
2023-06-19T01:00:31.649Z,5.43
2023-06-19T01:02:59.969Z,6.60
2023-06-19T01:05:29.941Z,6.50
2023-06-19T01:08:31.289Z,6.07
2023-06-19T01:11:08.999Z,6.60
2023-06-19T01:14:02.359Z,6.13
2023-06-19T01:16:31.393Z,6.57
2023-06-19T01:19:00.048Z,6.30
2023-06-19T01:21:27.324Z,6.78
2023-06-19T01:23:56.954Z,7.43
2023-06-19T01:26:28.795Z,6.13
2023-06-19T01:28:58.427Z,6.88
2023-06-19T01:31:35.412Z,6.70
2023-06-19T01:34:07.842Z,6.93
2023-06-19T01:36:36.977Z,5.90
2023-06-19T01:41:34.670Z,6.72
2023-06-19T01:44:02.112Z,5.80
2023-06-19T01:46:29.425Z,6.07
2023-06-19T01:48:57.385Z,6.43
2023-06-19T01:51:24.790Z,5.55
2023-06-19T01:53:52.485Z,6.60
2023-06-19T01:56:19.961Z,8.15
2023-06-19T01:58:47.165Z,6.72
2023-06-19T02:01:14.693Z,6.45
2023-06-19T02:03:42.029Z,5.70
2023-06-19T02:06:10.464Z,6.80
2023-06-19T02:08:37.724Z,4.60
2023-06-19T02:11:05.001Z,5.00
2023-06-19T02:13:34.145Z,4.40
2023-06-19T02:16:01.538Z,4.65
2023-06-19T02:18:29.257Z,5.25
2023-06-19T02:20:56.431Z,4.80
2023-06-19T02:23:23.693Z,4.32
2023-06-19T02:25:51.164Z,5.30
2023-06-19T02:28:18.610Z,4.72
2023-06-19T02:30:45.800Z,4.07
2023-06-19T02:33:14.397Z,4.60
2023-06-19T02:35:42.652Z,4.15
2023-06-19T02:38:09.884Z,4.47
2023-06-19T02:40:37.090Z,4.03
2023-06-19T02:43:04.213Z,4.68
2023-06-19T02:45:31.410Z,5.03
2023-06-19T02:47:59.506Z,4.95
2023-06-19T02:50:27.361Z,4.72
2023-06-19T02:52:54.588Z,5.00
2023-06-19T02:55:21.746Z,4.63
2023-06-19T02:57:48.903Z,5.00
2023-06-19T03:00:16.728Z,4.03
2023-06-19T03:02:45.346Z,4.85
2023-06-19T03:05:16.075Z,4.70
2023-06-19T03:07:43.427Z,4.15
2023-06-19T03:10:11.152Z,3.90
2023-06-19T03:12:38.355Z,4.30
2023-06-19T03:15:07.036Z,4.28
2023-06-19T03:17:44.177Z,4.13
2023-06-19T03:20:22.011Z,3.70
2023-06-19T03:22:55.316Z,4.10
2023-06-19T03:25:24.739Z,3.92
2023-06-19T03:27:52.411Z,4.15
2023-06-19T03:30:19.897Z,4.60
2023-06-19T03:32:50.677Z,4.13
2023-06-19T03:35:39.085Z,5.38
2023-06-19T03:38:07.419Z,4.82
2023-06-19T03:40:35.716Z,4.10
2023-06-19T03:43:08.873Z,4.30
2023-06-19T03:45:37.182Z,4.07
2023-06-19T03:48:07.643Z,4.63
2023-06-19T03:50:35.508Z,4.40
2023-06-19T03:53:03.177Z,4.28
2023-06-19T03:55:30.343Z,4.80
2023-06-19T03:57:57.474Z,3.95
2023-06-19T04:00:25.145Z,3.83
2023-06-19T04:02:53.037Z,4.75
2023-06-19T04:05:23.590Z,4.20
2023-06-19T04:07:50.796Z,3.90
2023-06-19T04:10:18.187Z,4.00
2023-06-19T04:12:49.213Z,4.18
2023-06-19T04:15:16.519Z,4.00
2023-06-19T04:17:43.832Z,3.75
2023-06-19T04:20:12.506Z,3.90
2023-06-19T04:25:12.067Z,4.40
2023-06-19T04:27:39.955Z,4.75
2023-06-19T04:30:08.186Z,4.30
2023-06-19T04:32:36.522Z,4.45
2023-06-19T04:35:04.568Z,4.70
2023-06-19T04:37:32.416Z,4.38
2023-06-19T04:40:00.044Z,5.22
2023-06-19T04:42:28.526Z,3.63
2023-06-19T04:44:57.283Z,4.18
2023-06-19T04:47:30.562Z,4.22
2023-06-19T04:50:04.654Z,4.25
2023-06-19T04:52:34.270Z,4.10
2023-06-19T04:55:01.709Z,3.92
2023-06-19T04:57:28.985Z,3.75
2023-06-19T04:59:56.458Z,4.47
2023-06-19T05:02:25.018Z,4.10
2023-06-19T05:04:52.402Z,4.57
2023-06-19T05:07:19.756Z,4.32
2023-06-19T05:09:47.488Z,3.58
2023-06-19T05:12:15.363Z,3.95
2023-06-19T05:14:43.196Z,3.63
2023-06-19T05:17:10.792Z,4.22
2023-06-19T05:19:38.117Z,4.03
2023-06-19T05:22:05.957Z,3.88
2023-06-19T05:24:36.728Z,3.83
2023-06-19T05:27:04.563Z,3.80
2023-06-19T05:29:33.263Z,4.10
2023-06-19T05:32:01.370Z,4.10
2023-06-19T05:34:29.036Z,4.07
2023-06-19T05:36:56.883Z,3.83
2023-06-19T05:39:24.832Z,3.23
2023-06-19T05:41:52.162Z,3.38
2023-06-19T05:44:20.327Z,2.80
2023-06-19T05:46:48.344Z,2.75
2023-06-19T05:49:16.091Z,3.60
2023-06-19T05:51:44.451Z,2.67
2023-06-19T05:54:11.772Z,3.00
2023-06-19T05:56:39.109Z,2.80
2023-06-19T05:59:06.443Z,3.20
2023-06-19T06:01:33.650Z,2.97
2023-06-19T06:04:02.651Z,2.80
2023-06-19T06:08:57.459Z,2.88
2023-06-19T06:11:24.855Z,3.20
2023-06-19T06:13:52.510Z,3.42
2023-06-19T06:16:20.635Z,2.90
2023-06-19T06:18:48.231Z,3.25
2023-06-19T06:21:15.508Z,3.60
2023-06-19T06:23:43.027Z,3.22
2023-06-19T06:26:10.703Z,3.45
2023-06-19T06:28:39.781Z,3.28
2023-06-19T06:33:35.591Z,3.83
2023-06-19T06:36:08.702Z,3.83
2023-06-19T06:38:37.032Z,3.03
2023-06-19T06:41:04.717Z,3.10
2023-06-19T06:43:32.397Z,3.70
2023-06-19T06:46:00.017Z,3.47
2023-06-19T06:48:27.799Z,3.20
2023-06-19T06:51:00.211Z,3.38
2023-06-19T06:53:32.983Z,3.17
2023-06-19T06:56:01.104Z,2.78
2023-06-19T06:58:28.897Z,3.65
2023-06-19T07:00:57.391Z,2.90
2023-06-19T07:03:24.853Z,3.10
2023-06-19T07:05:52.330Z,2.90
2023-06-19T07:08:20.125Z,3.45
2023-06-19T07:10:47.902Z,2.80
2023-06-19T07:13:15.546Z,3.00
2023-06-19T07:15:43.293Z,2.80
2023-06-19T07:18:24.406Z,2.45
2023-06-19T07:20:53.218Z,2.92
2023-06-19T07:23:23.404Z,2.60
2023-06-19T07:25:50.631Z,2.90
2023-06-19T07:28:17.921Z,2.45
2023-06-19T07:30:46.233Z,2.20
2023-06-19T07:33:13.408Z,2.30
2023-06-19T07:35:40.617Z,2.35
2023-06-19T07:38:07.832Z,2.22
2023-06-19T07:40:35.271Z,2.10
2023-06-19T07:43:03.524Z,2.08
2023-06-19T07:45:30.690Z,2.37
2023-06-19T07:47:59.111Z,2.33
2023-06-19T07:50:28.078Z,2.00
2023-06-19T07:52:56.252Z,1.85
2023-06-19T07:55:23.837Z,1.70
2023-06-19T07:57:51.172Z,2.22
2023-06-19T08:00:18.995Z,2.03
2023-06-19T08:02:46.309Z,1.77
2023-06-19T08:05:13.900Z,1.77
2023-06-19T08:07:42.140Z,2.30
2023-06-19T08:10:27.396Z,2.13
2023-06-19T08:12:55.349Z,2.00
2023-06-19T08:15:22.944Z,2.30
2023-06-19T08:17:50.586Z,2.30
2023-06-19T08:20:17.926Z,2.20
2023-06-19T08:22:45.068Z,2.05
2023-06-19T08:25:13.175Z,2.33
2023-06-19T08:27:40.381Z,2.00
2023-06-19T08:30:08.579Z,2.17
2023-06-19T08:32:36.131Z,1.98
2023-06-19T08:35:04.242Z,2.00
2023-06-19T08:37:31.867Z,2.03
2023-06-19T08:40:00.956Z,1.90
2023-06-19T08:42:29.160Z,1.70
2023-06-19T08:44:56.457Z,1.73
2023-06-19T08:47:33.058Z,2.17
2023-06-19T08:50:02.644Z,1.95
2023-06-19T08:52:31.465Z,1.90
2023-06-19T08:54:58.936Z,1.83
2023-06-19T08:57:40.393Z,2.22
2023-06-19T09:00:11.389Z,2.05
2023-06-19T09:02:44.686Z,1.95
2023-06-19T09:05:18.213Z,2.10
2023-06-19T09:07:58.701Z,1.88
2023-06-19T09:10:26.537Z,2.22
2023-06-19T09:13:04.056Z,3.75
2023-06-19T09:15:36.353Z,2.33
2023-06-19T09:18:12.437Z,1.70
2023-06-19T09:20:45.432Z,2.08
2023-06-19T09:23:14.096Z,1.88
2023-06-19T09:25:58.403Z,1.85
2023-06-19T09:28:28.956Z,1.70
2023-06-19T09:31:02.854Z,1.90
2023-06-19T09:33:33.762Z,1.70
2023-06-19T09:36:06.514Z,2.05
2023-06-19T09:39:03.338Z,1.70
2023-06-19T09:41:32.406Z,1.30
2023-06-19T09:44:01.229Z,1.80
2023-06-19T09:46:37.966Z,1.85
2023-06-19T09:49:08.288Z,1.80
2023-06-19T09:51:43.062Z,1.58
2023-06-19T09:54:11.744Z,1.70
2023-06-19T09:56:40.412Z,1.98
2023-06-19T09:59:10.692Z,2.05
2023-06-19T10:01:38.591Z,1.85
2023-06-19T10:04:12.322Z,1.85
2023-06-19T10:06:50.612Z,1.55
2023-06-19T10:09:20.939Z,1.60
2023-06-19T10:11:52.866Z,1.60
2023-06-19T10:14:25.775Z,1.70
2023-06-19T10:16:53.147Z,1.50
2023-06-19T10:19:23.554Z,1.50
2023-06-19T10:21:55.174Z,1.45
2023-06-19T10:24:26.480Z,1.30
2023-06-19T10:27:03.054Z,1.92
2023-06-19T10:29:43.605Z,1.75
2023-06-19T10:32:20.943Z,1.80
2023-06-19T10:34:52.297Z,1.70
2023-06-19T10:37:33.305Z,1.80
2023-06-19T10:40:01.459Z,1.75
2023-06-19T10:42:29.742Z,1.98
2023-06-19T10:45:11.552Z,1.95
2023-06-19T10:47:41.383Z,1.77
2023-06-19T10:50:15.584Z,1.90
2023-06-19T10:52:49.375Z,1.85
2023-06-19T10:55:16.841Z,1.95
2023-06-19T10:57:48.220Z,2.00
2023-06-19T11:00:32.082Z,2.05
2023-06-19T11:03:00.471Z,2.20
2023-06-19T11:05:29.717Z,1.80
2023-06-19T11:08:00.622Z,1.90
2023-06-19T11:10:30.653Z,2.15
2023-06-19T11:13:00.192Z,2.30
2023-06-19T11:15:35.876Z,1.52
2023-06-19T11:18:04.385Z,1.80
2023-06-19T11:20:31.661Z,1.70
2023-06-19T11:23:02.059Z,2.28
2023-06-19T11:25:41.724Z,1.98
2023-06-19T11:28:24.769Z,1.85
2023-06-19T11:31:04.560Z,2.00
2023-06-19T11:33:31.969Z,1.92
2023-06-19T11:36:04.102Z,1.80
2023-06-19T11:38:32.245Z,1.83
2023-06-19T11:40:59.480Z,1.90
2023-06-19T11:43:33.603Z,1.80
2023-06-19T11:46:09.049Z,1.95
2023-06-19T11:48:40.464Z,2.00
2023-06-19T11:51:09.203Z,1.80
2023-06-19T11:53:37.241Z,2.38
2023-06-19T11:56:05.849Z,8.10
2023-06-19T11:58:33.108Z,12.25
2023-06-19T12:01:00.370Z,5.25
2023-06-19T12:03:28.337Z,11.50
2023-06-19T12:05:55.840Z,6.47
2023-06-19T12:08:23.405Z,6.35
2023-06-19T12:10:50.954Z,7.53
2023-06-19T12:13:18.530Z,3.92
2023-06-19T12:15:46.017Z,3.08
2023-06-19T12:18:15.116Z,3.22
2023-06-19T12:20:42.675Z,2.70
2023-06-19T12:23:10.197Z,2.13
2023-06-19T12:25:37.392Z,1.65
2023-06-19T12:28:06.645Z,1.70
2023-06-19T12:30:34.029Z,1.92
2023-06-19T12:33:02.089Z,2.00
2023-06-19T12:35:29.315Z,1.75
2023-06-19T12:37:57.067Z,1.98
2023-06-19T12:40:24.892Z,1.80
2023-06-19T12:42:53.144Z,3.67
2023-06-19T12:45:20.995Z,2.97
2023-06-19T12:47:49.302Z,3.25
2023-06-19T12:50:17.182Z,2.30
2023-06-19T12:52:45.255Z,1.80
2023-06-19T12:55:13.054Z,1.98
2023-06-19T12:57:41.680Z,1.98
2023-06-19T13:00:14.086Z,1.67
2023-06-19T13:02:44.102Z,1.70
2023-06-19T13:05:11.662Z,1.60
2023-06-19T13:07:39.534Z,1.92
2023-06-19T13:12:34.989Z,1.90
2023-06-19T13:15:03.031Z,1.75
2023-06-19T13:17:31.072Z,1.90
2023-06-19T13:19:58.588Z,1.85
2023-06-19T13:22:26.399Z,1.83
2023-06-19T13:27:20.898Z,1.55
2023-06-19T13:29:48.180Z,1.70
2023-06-19T13:32:15.333Z,1.58
2023-06-19T13:34:43.259Z,1.50
2023-06-19T13:37:14.357Z,1.77
2023-06-19T13:39:42.356Z,1.83
2023-06-19T13:42:14.222Z,1.45
2023-06-19T13:44:41.593Z,1.92
2023-06-19T13:47:09.222Z,1.40
2023-06-19T13:49:36.627Z,2.08
2023-06-19T13:52:04.241Z,1.55
2023-06-19T13:54:31.408Z,1.73
2023-06-19T13:56:59.612Z,1.67
2023-06-19T13:59:27.028Z,1.85
2023-06-19T14:01:54.896Z,1.42
2023-06-19T14:04:22.092Z,1.88
2023-06-19T14:06:49.459Z,1.83
2023-06-19T14:09:17.656Z,1.80
2023-06-19T14:11:45.378Z,1.70
2023-06-19T14:14:13.061Z,1.80
2023-06-19T14:16:40.911Z,1.70
2023-06-19T14:19:08.246Z,1.70
2023-06-19T14:21:36.095Z,1.95
2023-06-19T14:24:04.058Z,1.55
2023-06-19T14:26:31.549Z,1.80
2023-06-19T14:28:59.915Z,1.67
2023-06-19T14:31:27.067Z,1.65
2023-06-19T14:33:55.907Z,1.70
2023-06-19T14:36:23.429Z,1.50
2023-06-19T14:38:51.469Z,1.45
2023-06-19T14:41:19.378Z,1.85
2023-06-19T14:43:46.861Z,1.80
2023-06-19T14:46:23.005Z,1.60
2023-06-19T14:49:02.204Z,1.65
2023-06-19T14:51:30.127Z,1.90
2023-06-19T14:53:57.645Z,1.60
2023-06-19T14:56:25.498Z,1.48
2023-06-19T14:58:52.732Z,1.70
2023-06-19T15:01:20.325Z,1.77
2023-06-19T15:03:47.618Z,1.63
2023-06-19T15:06:15.112Z,1.70
2023-06-19T15:08:42.404Z,1.65
2023-06-19T15:11:09.604Z,1.40
2023-06-19T15:13:39.666Z,1.40
2023-06-19T15:16:08.951Z,2.08
2023-06-19T15:18:36.512Z,1.88
2023-06-19T15:21:07.050Z,1.77
2023-06-19T15:23:35.346Z,2.35
2023-06-19T15:28:29.864Z,1.58
2023-06-19T15:30:57.118Z,1.63
2023-06-19T15:33:24.343Z,1.70
2023-06-19T15:35:52.511Z,1.70
2023-06-19T15:38:20.420Z,1.48
2023-06-19T15:43:15.592Z,1.83
2023-06-19T15:45:42.918Z,2.13
2023-06-19T15:48:10.636Z,1.70
2023-06-19T15:50:38.658Z,1.55
2023-06-19T15:53:05.857Z,1.90
2023-06-19T15:55:33.541Z,1.53
2023-06-19T15:58:00.704Z,2.45
2023-06-19T16:00:28.125Z,1.60
2023-06-19T16:02:55.516Z,1.52
2023-06-19T16:05:23.526Z,1.90
2023-06-19T16:07:51.030Z,2.00
2023-06-19T16:10:19.120Z,1.80
2023-06-19T16:12:46.861Z,2.23
2023-06-19T16:15:14.469Z,2.05
2023-06-19T16:17:42.223Z,1.90
2023-06-19T16:20:11.328Z,2.10
2023-06-19T16:22:38.999Z,2.63
2023-06-19T16:25:07.128Z,1.98
2023-06-19T16:27:34.264Z,2.60
2023-06-19T16:30:03.531Z,2.35
2023-06-19T16:32:31.985Z,2.30
2023-06-19T16:34:59.337Z,2.17
2023-06-19T16:37:27.706Z,2.03
2023-06-19T16:42:25.787Z,2.30
2023-06-19T16:44:54.572Z,4.35
2023-06-19T16:47:21.928Z,2.47
2023-06-19T16:49:49.814Z,2.60
2023-06-19T16:52:18.583Z,2.63
2023-06-19T16:54:46.203Z,2.92
2023-06-19T16:57:13.417Z,2.53
2023-06-19T16:59:40.640Z,2.40
2023-06-19T17:02:07.965Z,2.60
2023-06-19T17:04:35.233Z,2.88
2023-06-19T17:07:02.674Z,2.40
2023-06-19T17:09:29.928Z,3.00
2023-06-19T17:11:57.196Z,2.88
2023-06-19T17:14:25.080Z,3.35
2023-06-19T17:16:55.908Z,2.50
2023-06-19T17:19:23.630Z,2.63
2023-06-19T17:21:50.826Z,2.72
2023-06-19T17:24:19.064Z,2.60
2023-06-19T17:26:46.443Z,2.88
2023-06-19T17:29:13.841Z,2.70
2023-06-19T17:31:41.378Z,2.50
2023-06-19T17:34:08.596Z,2.58
2023-06-19T17:36:35.812Z,2.88
2023-06-19T17:39:04.233Z,2.63
2023-06-19T17:41:31.702Z,2.35
2023-06-19T17:44:04.785Z,3.03
2023-06-19T17:46:32.481Z,2.80
2023-06-19T17:49:00.164Z,3.03
2023-06-19T17:51:27.665Z,3.17
2023-06-19T17:53:55.273Z,2.80
2023-06-19T17:56:22.909Z,2.60
2023-06-19T17:58:50.388Z,3.15
2023-06-19T18:01:17.873Z,3.38
2023-06-19T18:03:45.171Z,3.50
2023-06-19T18:06:12.386Z,3.53
2023-06-19T18:08:39.715Z,3.13
2023-06-19T18:11:07.738Z,3.83
2023-06-19T18:13:35.774Z,3.63
2023-06-19T18:16:12.052Z,4.00
2023-06-19T18:18:40.818Z,3.63
2023-06-19T18:21:08.027Z,3.00
2023-06-19T18:23:35.375Z,3.38
2023-06-19T18:26:02.624Z,3.45
2023-06-19T18:28:29.841Z,3.53
2023-06-19T18:30:57.415Z,3.42
2023-06-19T18:33:24.880Z,3.28
2023-06-19T18:35:52.051Z,3.45
2023-06-19T18:38:19.751Z,3.47
2023-06-19T18:40:48.951Z,3.30
2023-06-19T18:43:16.641Z,3.42
2023-06-19T18:45:44.380Z,3.53
2023-06-19T18:48:12.276Z,3.55
2023-06-19T18:50:39.939Z,3.40
2023-06-19T18:53:08.240Z,3.92
2023-06-19T18:55:37.287Z,3.70
2023-06-19T18:58:07.025Z,3.40
2023-06-19T19:00:35.489Z,3.55
2023-06-19T19:03:10.276Z,3.28
2023-06-19T19:05:40.120Z,3.80
2023-06-19T19:08:07.992Z,3.70
2023-06-19T19:10:35.738Z,4.82
2023-06-19T19:13:03.715Z,3.40
2023-06-19T19:15:31.588Z,3.37
2023-06-19T19:18:00.556Z,4.07
2023-06-19T19:20:29.110Z,3.60
2023-06-19T19:22:56.479Z,4.53
2023-06-19T19:25:23.677Z,3.80
2023-06-19T19:27:51.351Z,3.80
2023-06-19T19:30:19.500Z,3.83
2023-06-19T19:32:47.323Z,4.03
2023-06-19T19:35:14.615Z,4.35
2023-06-19T19:37:42.439Z,4.25
2023-06-19T19:40:11.553Z,5.27
2023-06-19T19:42:39.312Z,4.35
2023-06-19T19:45:07.921Z,5.72
2023-06-19T19:47:36.269Z,4.35
2023-06-19T19:50:04.026Z,4.03
2023-06-19T19:52:31.920Z,4.20
2023-06-19T19:55:00.049Z,4.63
2023-06-19T19:57:27.550Z,3.97
2023-06-19T19:59:55.251Z,4.75
2023-06-19T20:02:22.998Z,3.90
2023-06-19T20:04:50.642Z,4.40
2023-06-19T20:07:18.105Z,4.50
2023-06-19T20:09:45.401Z,4.32
2023-06-19T20:12:21.457Z,4.80
2023-06-19T20:14:50.965Z,4.90
2023-06-19T20:19:45.634Z,5.13
2023-06-19T20:22:13.547Z,4.15
2023-06-19T20:24:41.092Z,4.10
2023-06-19T20:27:08.465Z,4.30
2023-06-19T20:29:36.795Z,4.10
2023-06-19T20:32:05.556Z,4.78
2023-06-19T20:40:23.594Z,4.85
2023-06-19T20:47:41.843Z,4.82
2023-06-19T20:50:09.380Z,4.68
2023-06-19T20:52:37.072Z,5.35
2023-06-19T20:55:07.569Z,5.38
2023-06-19T20:57:34.949Z,4.60
2023-06-19T21:00:03.544Z,4.75
2023-06-19T21:02:33.716Z,5.13
2023-06-19T21:05:01.223Z,4.20
2023-06-19T21:07:33.015Z,4.55
2023-06-19T21:10:00.561Z,5.10
2023-06-19T21:12:27.724Z,5.13
2023-06-19T21:14:56.039Z,4.93
2023-06-19T21:19:51.319Z,5.47
2023-06-19T21:22:18.590Z,5.05
2023-06-19T21:24:46.069Z,4.43
2023-06-19T21:27:13.441Z,5.40
2023-06-19T21:29:41.029Z,4.63
2023-06-19T21:32:08.946Z,5.82
2023-06-19T21:34:36.166Z,4.70
2023-06-19T21:37:03.404Z,5.60
2023-06-19T21:39:31.087Z,5.55
2023-06-19T21:41:58.420Z,5.30
2023-06-19T21:44:25.625Z,5.72
2023-06-19T21:46:53.007Z,6.45
2023-06-19T21:49:20.172Z,6.70
2023-06-19T21:51:47.402Z,5.63
2023-06-19T21:54:14.826Z,6.43
2023-06-19T21:56:41.961Z,5.90
2023-06-19T21:59:09.110Z,7.15
2023-06-19T22:01:37.279Z,6.70
2023-06-19T22:04:07.229Z,5.70
2023-06-19T22:06:35.433Z,5.43
2023-06-19T22:09:02.818Z,5.70
2023-06-19T22:11:30.417Z,5.40
2023-06-19T22:13:57.620Z,5.95
2023-06-19T22:16:25.022Z,5.25
2023-06-19T22:18:52.328Z,5.43
2023-06-19T22:21:19.660Z,5.90
2023-06-19T22:23:46.849Z,5.18
2023-06-19T22:26:15.078Z,6.07
2023-06-19T22:28:42.384Z,5.63
2023-06-19T22:31:09.609Z,5.65
2023-06-19T22:33:37.273Z,5.60
2023-06-19T22:36:04.846Z,5.75
2023-06-19T22:38:32.051Z,5.47
2023-06-19T22:40:59.423Z,6.05
2023-06-19T22:43:26.572Z,5.70
2023-06-19T22:45:53.852Z,6.68
2023-06-19T22:48:21.150Z,6.53
2023-06-19T22:50:48.338Z,5.03
2023-06-19T22:53:15.516Z,5.70
2023-06-19T22:55:43.487Z,5.35
2023-06-19T22:58:10.815Z,6.25
2023-06-19T23:00:38.800Z,5.85
2023-06-19T23:03:07.048Z,6.55
2023-06-19T23:05:34.544Z,6.13
2023-06-19T23:08:03.052Z,6.60
2023-06-19T23:10:30.704Z,6.03
2023-06-19T23:12:57.899Z,5.80
2023-06-19T23:15:25.810Z,7.28
2023-06-19T23:17:54.253Z,5.72
2023-06-19T23:20:22.080Z,6.47
2023-06-19T23:22:49.387Z,5.63
2023-06-19T23:25:16.857Z,6.32
2023-06-19T23:27:44.469Z,6.65
2023-06-19T23:30:12.282Z,6.10
2023-06-19T23:32:39.494Z,5.85
2023-06-19T23:35:07.126Z,6.13
2023-06-19T23:37:34.936Z,5.97
2023-06-19T23:40:02.823Z,6.25
2023-06-19T23:42:30.591Z,6.70
2023-06-19T23:44:58.084Z,6.03
2023-06-19T23:47:25.217Z,6.20
2023-06-19T23:49:53.295Z,6.65
2023-06-19T23:52:29.681Z,6.57
2023-06-19T23:55:02.011Z,5.53
2023-06-19T23:57:29.998Z,5.40
2023-06-19T23:59:58.124Z,6.13
